Terminal Aerodrome Forecast
Issued by NWS Hastings, NE

Home | Current Version | Previous Version | Text Only | Print | Product List | Glossary On
Versions: 1 2 3 4 5 6 7 8 9 10 11 12 13 14 15 16 17 18
000
FTUS43 KGID 260520
TAFGRI
TAF
KGRI 260520Z 2606/2706 03004KT 1SM -DZ BR OVC003
     FM260900 VRB03KT 3/4SM -DZ BR OVC003
     FM261200 VRB03KT 1/2SM -DZ FG OVC003
     FM261400 00000KT 1SM -DZ BR OVC003
     FM261600 00000KT 2SM BR OVC003
     FM261700 VRB03KT P6SM OVC008
     FM262200 03006KT P6SM BKN025
     FM270500 05004KT P6SM BKN015=

USA.gov is the U.S. government's official web portal to all federal, state and local government web resources and services.